createdAt,value
2024-04-23T00:00:04.108Z,1.38
2024-04-23T00:10:06.726Z,1.83
2024-04-23T00:20:09.256Z,1.17
2024-04-23T00:30:11.839Z,2.67
2024-04-23T00:40:14.429Z,3.08
2024-04-23T00:50:17.058Z,2.15
2024-04-23T01:00:19.652Z,7.40
2024-04-23T01:10:23.386Z,3.42
2024-04-23T01:20:25.953Z,2.17
2024-04-23T01:30:28.488Z,1.98
2024-04-23T01:40:31.075Z,3.08
2024-04-23T01:50:33.633Z,2.55
2024-04-23T02:00:36.179Z,1.52
2024-04-23T02:10:38.834Z,2.50
2024-04-23T02:20:41.434Z,2.13
2024-04-23T02:30:44.042Z,1.77
2024-04-23T02:40:46.722Z,3.22
2024-04-23T02:50:49.341Z,4.28
2024-04-23T03:00:52.035Z,3.75
2024-04-23T03:10:54.838Z,2.10
2024-04-23T03:20:59.313Z,2.83
2024-04-23T03:31:01.866Z,2.97
2024-04-23T03:41:04.466Z,2.60
2024-04-23T03:51:26.833Z,2.35
2024-04-23T04:01:29.424Z,2.90
2024-04-23T04:11:32.268Z,3.10
2024-04-23T04:21:35.046Z,2.42
2024-04-23T04:31:37.683Z,1.65
2024-04-23T04:41:40.328Z,2.25
2024-04-23T04:51:42.888Z,1.00
2024-04-23T05:01:45.515Z,0.82
2024-04-23T05:11:48.310Z,0.88
2024-04-23T05:21:50.979Z,1.48
2024-04-23T05:31:53.556Z,0.82
2024-04-23T05:41:58.016Z,1.05
2024-04-23T05:52:01.915Z,1.30
2024-04-23T06:02:06.125Z,1.92
2024-04-23T06:12:08.902Z,0.70
2024-04-23T06:22:11.511Z,1.15
2024-04-23T06:32:14.129Z,0.82
2024-04-23T06:42:16.770Z,1.38
2024-04-23T06:52:19.439Z,0.90
2024-04-23T07:02:22.393Z,2.42
2024-04-23T07:12:25.122Z,1.15
2024-04-23T07:22:27.727Z,0.70
2024-04-23T07:32:30.417Z,0.70
2024-04-23T07:42:33.091Z,1.40
2024-04-23T07:52:35.825Z,0.80
2024-04-23T08:02:38.453Z,1.13
2024-04-23T08:12:41.360Z,0.63
2024-04-23T08:22:43.893Z,0.68
2024-04-23T08:32:46.580Z,1.77
2024-04-23T08:42:49.250Z,1.23
2024-04-23T08:52:51.874Z,3.10
2024-04-23T09:02:54.497Z,0.80
2024-04-23T09:12:57.113Z,0.98
2024-04-23T09:22:59.688Z,1.10
2024-04-23T09:33:02.469Z,1.00
2024-04-23T09:43:05.108Z,1.05
2024-04-23T09:53:07.796Z,1.35
2024-04-23T10:03:11.984Z,0.85
2024-04-23T10:13:16.879Z,0.90
2024-04-23T10:23:19.616Z,0.90
2024-04-23T10:33:22.437Z,1.10
2024-04-23T10:43:27.579Z,0.85
2024-04-23T10:53:30.190Z,0.77
2024-04-23T11:03:33.001Z,1.20
2024-04-23T11:13:35.924Z,1.42
2024-04-23T11:23:38.566Z,1.20
2024-04-23T11:33:41.241Z,1.10
2024-04-23T11:43:43.870Z,1.83
2024-04-23T11:53:46.419Z,1.15
2024-04-23T12:03:51.255Z,1.15
2024-04-23T12:13:55.110Z,2.17
2024-04-23T12:23:59.568Z,0.80
2024-04-23T12:34:02.430Z,0.98
2024-04-23T12:45:02.083Z,1.65
2024-04-23T12:54:38.988Z,1.38
2024-04-23T13:04:42.760Z,1.10
2024-04-23T13:14:45.353Z,1.02
2024-04-23T13:24:47.972Z,0.88
2024-04-23T13:34:50.629Z,1.20
2024-04-23T13:44:53.252Z,4.40
2024-04-23T13:54:55.814Z,1.85
2024-04-23T14:04:58.447Z,3.28
2024-04-23T14:15:01.129Z,5.88
2024-04-23T14:25:03.757Z,8.40
2024-04-23T14:35:06.391Z,9.05
2024-04-23T14:45:09.058Z,9.38
2024-04-23T14:55:11.630Z,5.35
2024-04-23T15:05:14.256Z,4.28
2024-04-23T15:15:16.880Z,12.98
2024-04-23T15:25:20.816Z,7.43
2024-04-23T15:35:23.449Z,12.70
2024-04-23T15:45:26.001Z,12.45
2024-04-23T15:55:28.564Z,11.40
2024-04-23T16:05:31.169Z,12.77
2024-04-23T16:15:33.755Z,8.50
2024-04-23T16:25:36.353Z,4.68
2024-04-23T16:35:38.934Z,4.15
2024-04-23T16:45:41.512Z,2.28
2024-04-23T16:55:44.148Z,5.65
2024-04-23T17:05:46.722Z,5.70
2024-04-23T17:15:49.340Z,7.57
2024-04-23T17:25:51.910Z,4.95
2024-04-23T17:35:54.531Z,5.18
2024-04-23T17:45:57.144Z,2.65
2024-04-23T17:55:59.827Z,1.95
2024-04-23T18:06:02.512Z,2.72
2024-04-23T18:16:05.135Z,5.05
2024-04-23T18:26:07.748Z,1.48
2024-04-23T18:36:10.305Z,1.85
2024-04-23T18:46:13.047Z,3.53
2024-04-23T18:56:15.713Z,3.17
2024-04-23T19:06:18.453Z,3.72
2024-04-23T19:16:21.378Z,2.28
2024-04-23T19:26:23.932Z,2.63
2024-04-23T19:36:26.564Z,4.50
2024-04-23T19:46:29.163Z,3.08
2024-04-23T19:56:31.718Z,2.20
2024-04-23T20:06:34.281Z,3.78
2024-04-23T20:16:36.992Z,2.67
2024-04-23T20:26:39.645Z,2.85
2024-04-23T20:36:43.383Z,3.00
2024-04-23T20:46:45.958Z,3.25
2024-04-23T20:56:48.540Z,3.42
2024-04-23T21:06:51.183Z,2.72
2024-04-23T21:16:53.925Z,3.13
2024-04-23T21:26:56.527Z,3.17
2024-04-23T21:36:59.119Z,4.22
2024-04-23T21:47:01.727Z,3.60
2024-04-23T21:57:04.336Z,1.80
2024-04-23T22:07:06.924Z,3.40
2024-04-23T22:17:09.642Z,2.25
2024-04-23T22:27:12.256Z,1.92
2024-04-23T22:37:14.790Z,2.90
2024-04-23T22:47:17.513Z,1.70
2024-04-23T22:57:20.143Z,2.55
2024-04-23T23:07:22.690Z,3.35
2024-04-23T23:17:25.375Z,2.72
2024-04-23T23:27:28.005Z,3.05
2024-04-23T23:37:30.601Z,3.38
2024-04-23T23:47:33.297Z,2.10
2024-04-23T23:57:35.912Z,1.50
